Pagrindinis puslapis
METAR-TAF:

METAR-TAF

Oro uostai :

Joensū, Suomija

platuma: 62-40N, ilguma: 029-38E, Aukštis: 119 m

Dabartinis oras

Ataskaita buvo paskelbta 34 minutes, ne 09:50 UTC
Vėjas 9 kt iš Pietų
Temperatūra 14°C
Drėgmė 77%
Slėgis 1000 hPa
Matomumas 10 km arba daugiau
Apsiniaukę ne aukštis 2000 ft

METAR: EFJO 050950Z AUTO 17009KT 9999 OVC020 14/10 Q1000

Laikas: 13:24 (10:24 UTC)


TAF: trūkstamas

Orai ataskaitas ir orų prognozės (METAR, TAF).

turimą stotys yra geltonos ir raudonos taškus žemėlapyje.

Perkelti pele per norėdami pamatyti stoties vardą.

Tada spustelėkite, norėdami matyti oro stebėjimo ir prognozės.

Norėdami pakeisti žemėlapį: spustelėkite ant žalios mygtukų su juodo kryžiaus žemyn,; žalią mygtuką su brūkšneliu, jei norite nutolinti; arba žalių rodyklių gretimoms žemėlapius.


METAR-TAF: